createdAt,value
2022-11-16T00:01:26.127Z,82.60
2022-11-16T00:03:55.401Z,82.70
2022-11-16T00:06:23.771Z,82.70
2022-11-16T00:09:13.281Z,82.70
2022-11-16T00:11:40.745Z,82.60
2022-11-16T00:14:07.801Z,82.70
2022-11-16T00:16:34.956Z,82.70
2022-11-16T00:19:04.691Z,82.70
2022-11-16T00:21:32.504Z,82.70
2022-11-16T00:23:59.470Z,82.70
2022-11-16T00:26:26.794Z,82.80
2022-11-16T00:28:54.950Z,82.70
2022-11-16T00:31:22.440Z,82.70
2022-11-16T00:33:49.774Z,82.80
2022-11-16T00:36:17.152Z,82.80
2022-11-16T00:38:44.340Z,82.80
2022-11-16T00:41:11.225Z,82.80
2022-11-16T00:43:38.205Z,82.90
2022-11-16T00:46:05.426Z,82.90
2022-11-16T00:48:32.566Z,82.90
2022-11-16T00:50:59.679Z,83.00
2022-11-16T00:53:26.885Z,83.00
2022-11-16T00:55:53.753Z,83.10
2022-11-16T00:58:20.882Z,83.10
2022-11-16T01:00:47.925Z,83.20
2022-11-16T01:03:14.816Z,83.40
2022-11-16T01:05:41.838Z,83.40
2022-11-16T01:08:09.124Z,83.40
2022-11-16T01:10:39.024Z,83.40
2022-11-16T01:13:06.352Z,83.50
2022-11-16T01:15:33.488Z,83.40
2022-11-16T01:18:00.362Z,83.40
2022-11-16T01:20:29.583Z,83.40
2022-11-16T01:22:56.441Z,83.50
2022-11-16T01:25:23.325Z,83.40
2022-11-16T01:27:50.212Z,83.40
2022-11-16T01:30:17.224Z,83.30
2022-11-16T01:32:44.180Z,83.30
2022-11-16T01:35:16.517Z,83.20
2022-11-16T01:37:43.893Z,83.20
2022-11-16T01:40:12.253Z,83.20
2022-11-16T01:42:39.120Z,83.20
2022-11-16T01:45:44.310Z,83.10
2022-11-16T01:48:13.962Z,83.10
2022-11-16T01:50:41.613Z,83.10
2022-11-16T01:53:10.827Z,83.10
2022-11-16T01:55:38.375Z,83.10
2022-11-16T01:58:06.775Z,83.10
2022-11-16T02:00:34.022Z,83.10
2022-11-16T02:03:00.946Z,83.00
2022-11-16T02:05:42.594Z,83.00
2022-11-16T02:08:34.386Z,83.10
2022-11-16T02:11:22.758Z,83.10
2022-11-16T02:14:13.048Z,83.10
2022-11-16T02:17:03.790Z,83.20
2022-11-16T02:19:49.253Z,83.80
2022-11-16T02:22:40.284Z,83.20
2022-11-16T02:25:12.809Z,83.30
2022-11-16T02:27:48.433Z,83.30
2022-11-16T02:30:16.122Z,83.40
2022-11-16T02:33:01.512Z,83.50
2022-11-16T02:35:41.891Z,83.50
2022-11-16T02:38:15.118Z,83.60
2022-11-16T02:40:47.297Z,83.50
2022-11-16T02:43:21.263Z,83.50
2022-11-16T02:45:51.706Z,83.60
2022-11-16T02:48:25.487Z,83.60
2022-11-16T02:50:53.833Z,83.50
2022-11-16T02:53:22.179Z,83.40
2022-11-16T02:55:49.308Z,83.40
2022-11-16T02:58:21.592Z,83.40
2022-11-16T03:01:02.313Z,83.40
2022-11-16T03:03:44.370Z,83.30
2022-11-16T03:06:20.858Z,83.30
2022-11-16T03:09:08.655Z,83.40
2022-11-16T03:11:58.069Z,83.50
2022-11-16T03:14:37.036Z,83.50
2022-11-16T03:17:08.254Z,83.40
2022-11-16T03:20:06.670Z,83.30
2022-11-16T03:22:46.314Z,83.30
2022-11-16T03:25:16.876Z,83.30
2022-11-16T03:28:10.656Z,83.30
2022-11-16T03:30:45.058Z,83.20
2022-11-16T03:33:47.096Z,83.20
2022-11-16T03:36:27.252Z,83.10
2022-11-16T03:38:55.508Z,83.10
2022-11-16T03:41:24.557Z,83.10
2022-11-16T03:43:53.005Z,83.10
2022-11-16T03:46:21.347Z,83.20
2022-11-16T03:48:48.166Z,83.10
2022-11-16T03:51:15.022Z,83.00
2022-11-16T03:53:41.912Z,83.00
2022-11-16T03:56:08.696Z,82.90
2022-11-16T03:58:35.656Z,82.90
2022-11-16T04:01:03.629Z,82.80
2022-11-16T04:03:30.616Z,82.80
2022-11-16T04:06:16.291Z,82.90
2022-11-16T04:09:01.863Z,82.80
2022-11-16T04:11:47.381Z,82.80
2022-11-16T04:14:37.258Z,82.80
2022-11-16T04:17:24.702Z,82.70
2022-11-16T04:20:10.089Z,82.50
2022-11-16T04:23:14.225Z,82.60
2022-11-16T04:25:43.704Z,82.50
2022-11-16T04:28:13.820Z,82.50
2022-11-16T04:31:11.096Z,82.60
2022-11-16T04:33:57.007Z,82.60
2022-11-16T04:36:42.411Z,82.50
2022-11-16T04:39:09.404Z,82.50
2022-11-16T04:41:54.905Z,82.50
2022-11-16T04:44:25.872Z,82.40
2022-11-16T04:47:09.093Z,82.40
2022-11-16T04:49:35.915Z,82.30
2022-11-16T04:52:02.750Z,82.20
2022-11-16T04:54:29.561Z,82.20
2022-11-16T04:56:56.359Z,82.10
2022-11-16T04:59:23.222Z,82.10
2022-11-16T05:02:08.183Z,82.10
2022-11-16T05:04:40.225Z,82.20
2022-11-16T05:07:11.264Z,82.20
2022-11-16T05:09:43.268Z,82.20
2022-11-16T05:12:12.164Z,82.20
2022-11-16T05:14:38.941Z,82.10
2022-11-16T05:17:05.800Z,82.10
2022-11-16T05:19:51.173Z,82.10
2022-11-16T05:22:18.037Z,82.30
2022-11-16T05:24:45.049Z,82.50
2022-11-16T05:27:14.468Z,82.70
2022-11-16T05:29:42.613Z,82.80
2022-11-16T05:32:12.382Z,83.00
2022-11-16T05:34:40.001Z,83.10
2022-11-16T05:37:07.056Z,83.10
2022-11-16T05:39:33.964Z,83.20
2022-11-16T05:42:00.928Z,83.20
2022-11-16T05:44:27.756Z,83.40
2022-11-16T05:46:56.185Z,83.30
2022-11-16T05:49:23.175Z,83.30
2022-11-16T05:51:50.212Z,83.50
2022-11-16T05:54:22.246Z,83.50
2022-11-16T05:56:49.798Z,83.60
2022-11-16T05:59:18.182Z,83.60
2022-11-16T06:01:45.832Z,83.70
2022-11-16T06:04:13.325Z,83.80
2022-11-16T06:06:40.924Z,83.80
2022-11-16T06:09:08.696Z,84.00
2022-11-16T06:11:37.637Z,84.10
2022-11-16T06:14:05.341Z,84.10
2022-11-16T06:16:32.150Z,84.80
2022-11-16T06:18:59.824Z,84.30
2022-11-16T06:21:26.718Z,84.30
2022-11-16T06:23:53.742Z,84.30
2022-11-16T06:26:20.596Z,84.40
2022-11-16T06:28:47.580Z,84.50
2022-11-16T06:31:14.522Z,84.50
2022-11-16T06:33:41.417Z,84.60
2022-11-16T06:36:08.651Z,84.60
2022-11-16T06:38:35.757Z,84.70
2022-11-16T06:41:02.815Z,84.70
2022-11-16T06:43:29.647Z,84.70
2022-11-16T06:46:00.484Z,84.90
2022-11-16T06:48:27.510Z,84.90
2022-11-16T06:50:54.586Z,84.90
2022-11-16T06:53:26.061Z,84.90
2022-11-16T06:55:56.000Z,85.00
2022-11-16T06:58:22.877Z,85.00
2022-11-16T07:00:49.819Z,85.00
2022-11-16T07:03:16.658Z,85.00
2022-11-16T07:05:43.513Z,85.00
2022-11-16T07:08:10.398Z,85.00
2022-11-16T07:10:38.399Z,85.70
2022-11-16T07:13:05.738Z,85.10
2022-11-16T07:15:33.313Z,85.20
2022-11-16T07:18:04.712Z,85.10
2022-11-16T07:20:32.016Z,85.10
2022-11-16T07:23:02.915Z,85.10
2022-11-16T07:25:29.750Z,85.20
2022-11-16T07:27:58.212Z,85.30
2022-11-16T07:30:25.463Z,85.30
2022-11-16T07:32:56.540Z,85.40
2022-11-16T07:35:23.376Z,85.40
2022-11-16T07:37:50.137Z,85.40
2022-11-16T07:40:17.122Z,85.30
2022-11-16T07:42:45.379Z,85.40
2022-11-16T07:45:12.648Z,85.40
2022-11-16T07:47:39.573Z,86.10
2022-11-16T07:50:07.170Z,85.50
2022-11-16T07:52:34.019Z,85.50
2022-11-16T07:55:01.886Z,85.50
2022-11-16T07:57:28.962Z,85.50
2022-11-16T07:59:56.118Z,85.60
2022-11-16T08:02:23.225Z,85.50
2022-11-16T08:04:50.812Z,85.60
2022-11-16T08:07:17.729Z,85.50
2022-11-16T08:09:45.050Z,85.60
2022-11-16T08:12:13.104Z,85.70
2022-11-16T08:14:40.009Z,85.70
2022-11-16T08:17:08.435Z,85.70
2022-11-16T08:19:36.624Z,85.70
2022-11-16T08:22:03.909Z,85.00
2022-11-16T08:24:31.285Z,84.40
2022-11-16T08:26:58.902Z,83.80
2022-11-16T08:29:26.787Z,83.10
2022-11-16T08:31:54.064Z,82.70
2022-11-16T08:34:21.444Z,82.30
2022-11-16T08:36:48.398Z,82.10
2022-11-16T08:39:15.301Z,81.90
2022-11-16T08:41:42.829Z,81.80
2022-11-16T08:44:09.784Z,81.60
2022-11-16T08:46:36.692Z,81.50
2022-11-16T08:49:03.652Z,81.40
2022-11-16T08:51:30.563Z,81.30
2022-11-16T08:53:58.410Z,81.10
2022-11-16T08:56:27.353Z,81.20
2022-11-16T08:58:58.588Z,81.10
2022-11-16T09:01:28.027Z,81.00
2022-11-16T09:03:55.255Z,81.10
2022-11-16T09:06:23.940Z,81.10
2022-11-16T09:08:51.427Z,81.20
2022-11-16T09:11:21.818Z,81.80
2022-11-16T09:13:50.812Z,81.20
2022-11-16T09:16:20.918Z,81.20
2022-11-16T09:18:49.778Z,81.20
2022-11-16T09:21:22.061Z,81.10
2022-11-16T09:23:49.730Z,81.00
2022-11-16T09:26:20.910Z,81.00
2022-11-16T09:28:58.951Z,81.00
2022-11-16T09:31:27.699Z,81.00
2022-11-16T09:33:58.463Z,81.00
2022-11-16T09:36:27.404Z,80.90
2022-11-16T09:39:25.861Z,80.80
2022-11-16T09:42:02.666Z,80.70
2022-11-16T09:44:41.540Z,80.60
2022-11-16T09:47:35.227Z,80.50
2022-11-16T09:50:05.602Z,80.50
2022-11-16T09:52:41.664Z,80.50
2022-11-16T09:55:24.070Z,80.40
2022-11-16T09:57:54.763Z,80.40
2022-11-16T10:00:23.758Z,80.50
2022-11-16T10:03:04.328Z,80.50
2022-11-16T10:06:00.281Z,80.40
2022-11-16T10:08:41.396Z,80.50
2022-11-16T10:11:13.802Z,80.50
2022-11-16T10:14:03.985Z,80.40
2022-11-16T10:16:53.099Z,80.40
2022-11-16T10:19:40.133Z,80.40
2022-11-16T10:22:18.463Z,80.30
2022-11-16T10:24:56.714Z,80.30
2022-11-16T10:27:34.997Z,80.20
2022-11-16T10:30:08.060Z,80.20
2022-11-16T10:32:46.107Z,80.20
2022-11-16T10:35:12.873Z,80.20
2022-11-16T10:37:50.549Z,80.20
2022-11-16T10:40:25.040Z,80.10
2022-11-16T10:43:02.827Z,80.20
2022-11-16T10:45:38.441Z,80.10
2022-11-16T10:48:37.268Z,80.10
2022-11-16T10:51:05.762Z,80.20
2022-11-16T10:53:34.256Z,80.10
2022-11-16T10:56:22.681Z,80.10
2022-11-16T10:58:55.618Z,80.10
2022-11-16T11:01:57.641Z,80.10
2022-11-16T11:04:29.506Z,80.10
2022-11-16T11:07:01.157Z,80.10
2022-11-16T11:09:32.421Z,80.10
2022-11-16T11:12:31.553Z,80.10
2022-11-16T11:15:26.168Z,80.10
2022-11-16T11:18:16.728Z,66.40
2022-11-16T11:20:46.646Z,63.00
2022-11-16T11:23:22.366Z,57.20
2022-11-16T11:25:53.701Z,61.70
2022-11-16T11:28:37.789Z,59.80
2022-11-16T11:31:11.503Z,62.00
2022-11-16T11:33:44.350Z,61.10
2022-11-16T11:36:19.217Z,50.60
2022-11-16T11:39:06.649Z,46.10
2022-11-16T11:41:48.824Z,56.00
2022-11-16T11:44:20.550Z,64.60
2022-11-16T11:47:42.190Z,64.60
2022-11-16T11:49:50.192Z,64.90
2022-11-16T11:52:34.133Z,65.20
2022-11-16T11:55:02.700Z,65.60
2022-11-16T11:57:33.338Z,66.10
2022-11-16T12:00:02.284Z,66.50
2022-11-16T12:03:03.297Z,66.90
2022-11-16T12:05:56.674Z,67.30
2022-11-16T12:08:48.055Z,67.90
2022-11-16T12:11:14.821Z,68.30
2022-11-16T12:13:58.121Z,68.70
2022-11-16T12:16:24.873Z,69.00
2022-11-16T12:19:17.964Z,69.40
2022-11-16T12:22:38.495Z,69.80
2022-11-16T12:25:25.113Z,70.10
2022-11-16T12:28:21.181Z,70.50
2022-11-16T12:31:14.752Z,70.70
2022-11-16T12:33:52.973Z,71.10
2022-11-16T12:36:31.826Z,71.30
2022-11-16T12:39:08.224Z,71.60
2022-11-16T12:41:50.945Z,71.80
2022-11-16T12:44:31.534Z,72.00
2022-11-16T12:47:15.320Z,72.20
2022-11-16T12:50:00.065Z,72.40
2022-11-16T12:52:48.141Z,72.50
2022-11-16T12:55:38.570Z,72.70
2022-11-16T12:58:16.836Z,72.80
2022-11-16T13:01:06.576Z,72.90
2022-11-16T13:03:38.135Z,73.10
2022-11-16T13:06:09.592Z,73.20
2022-11-16T13:08:50.733Z,73.30
2022-11-16T13:11:31.903Z,73.40
2022-11-16T13:14:05.295Z,73.50
2022-11-16T13:16:32.239Z,73.60
2022-11-16T13:19:00.823Z,73.60
2022-11-16T13:21:51.164Z,73.70
2022-11-16T13:24:44.214Z,73.90
2022-11-16T13:27:19.838Z,74.00
2022-11-16T13:30:05.267Z,74.00
2022-11-16T13:32:59.080Z,74.10
2022-11-16T13:35:26.736Z,74.20
2022-11-16T13:37:53.638Z,74.60
2022-11-16T13:40:32.666Z,74.40
2022-11-16T13:43:11.376Z,74.50
2022-11-16T13:45:50.247Z,74.70
2022-11-16T13:48:25.117Z,74.70
2022-11-16T13:50:57.851Z,74.70
2022-11-16T13:56:29.020Z,75.00
2022-11-16T13:58:57.548Z,75.00
2022-11-16T14:01:24.416Z,75.00
2022-11-16T14:04:12.434Z,75.10
2022-11-16T14:06:45.065Z,75.10
2022-11-16T14:09:44.716Z,75.20
2022-11-16T14:12:51.777Z,75.20
2022-11-16T14:15:20.021Z,75.30
2022-11-16T14:17:54.981Z,75.30
2022-11-16T14:20:34.651Z,75.30
2022-11-16T14:23:28.979Z,75.40
2022-11-16T14:26:07.855Z,75.50
2022-11-16T14:29:06.933Z,75.50
2022-11-16T14:31:54.209Z,75.60
2022-11-16T14:34:32.737Z,75.60
2022-11-16T14:37:00.456Z,75.70
2022-11-16T14:39:27.601Z,75.70
2022-11-16T14:42:06.026Z,75.70
2022-11-16T14:44:39.510Z,75.70
2022-11-16T14:47:16.007Z,75.80
2022-11-16T14:49:45.379Z,75.80
2022-11-16T14:52:14.672Z,75.90
2022-11-16T14:55:00.693Z,75.80
2022-11-16T14:57:27.600Z,75.80
2022-11-16T15:00:16.925Z,75.90
2022-11-16T15:02:51.671Z,75.90
2022-11-16T15:05:21.855Z,75.90
2022-11-16T15:07:52.497Z,76.00
2022-11-16T15:10:25.194Z,76.00
2022-11-16T15:12:54.105Z,76.00
2022-11-16T15:15:26.841Z,76.00
2022-11-16T15:18:12.973Z,76.10
2022-11-16T15:20:49.291Z,76.10
2022-11-16T15:23:16.645Z,76.10
2022-11-16T15:25:55.914Z,76.10
2022-11-16T15:28:31.913Z,76.30
2022-11-16T15:31:05.615Z,76.30
2022-11-16T15:33:39.263Z,76.30
2022-11-16T15:36:23.037Z,76.30
2022-11-16T15:38:52.631Z,76.40
2022-11-16T15:41:20.808Z,76.40
2022-11-16T15:44:12.318Z,76.40
2022-11-16T15:46:40.561Z,76.50
2022-11-16T15:49:36.269Z,76.50
2022-11-16T15:52:03.618Z,76.50
2022-11-16T15:54:54.426Z,76.50
2022-11-16T15:57:23.682Z,76.50
2022-11-16T15:59:56.405Z,76.60
2022-11-16T16:02:29.791Z,76.60
2022-11-16T16:04:56.879Z,76.70
2022-11-16T16:07:41.353Z,76.80
2022-11-16T16:10:20.762Z,76.80
2022-11-16T16:12:52.864Z,76.80
2022-11-16T16:15:34.187Z,76.90
2022-11-16T16:18:03.870Z,76.90
2022-11-16T16:20:32.563Z,76.90
2022-11-16T16:23:07.660Z,76.90
2022-11-16T16:25:35.948Z,76.90
2022-11-16T16:28:03.273Z,76.90
2022-11-16T16:30:31.800Z,77.00
2022-11-16T16:32:59.363Z,77.00
2022-11-16T16:35:26.640Z,77.00
2022-11-16T16:37:59.220Z,76.90
2022-11-16T16:40:26.577Z,76.90
2022-11-16T16:42:55.631Z,76.90
2022-11-16T16:45:33.854Z,76.90
2022-11-16T16:48:00.683Z,76.80
2022-11-16T16:50:27.570Z,76.80
2022-11-16T16:52:54.436Z,76.80
2022-11-16T16:55:21.232Z,76.80
2022-11-16T16:57:48.334Z,76.80
2022-11-16T17:00:15.734Z,76.80
2022-11-16T17:02:42.611Z,76.80
2022-11-16T17:05:09.982Z,76.80
2022-11-16T17:07:36.898Z,76.70
2022-11-16T17:10:04.171Z,76.70
2022-11-16T17:12:31.359Z,76.80
2022-11-16T17:14:58.225Z,76.80
2022-11-16T17:17:25.512Z,76.80
2022-11-16T17:19:52.747Z,76.90
2022-11-16T17:22:20.820Z,76.80
2022-11-16T17:24:49.100Z,76.80
2022-11-16T17:27:16.327Z,76.70
2022-11-16T17:29:43.236Z,76.70
2022-11-16T17:32:10.213Z,76.70
2022-11-16T17:34:39.949Z,76.70
2022-11-16T17:37:06.863Z,76.80
2022-11-16T17:39:33.657Z,76.90
2022-11-16T17:42:00.450Z,76.90
2022-11-16T17:44:27.330Z,76.90
2022-11-16T17:46:54.187Z,76.90
2022-11-16T17:49:21.011Z,77.00
2022-11-16T17:51:47.864Z,77.10
2022-11-16T17:54:14.915Z,77.10
2022-11-16T17:56:41.794Z,77.10
2022-11-16T17:59:08.999Z,77.10
2022-11-16T18:01:35.967Z,77.10
2022-11-16T18:04:07.168Z,77.20
2022-11-16T18:06:35.563Z,77.20
2022-11-16T18:09:04.063Z,77.20
2022-11-16T18:11:30.859Z,77.20
2022-11-16T18:14:00.568Z,77.20
2022-11-16T18:16:30.069Z,77.20
2022-11-16T18:18:59.170Z,77.20
2022-11-16T18:21:26.661Z,77.20
2022-11-16T18:23:53.531Z,77.10
2022-11-16T18:26:23.460Z,77.20
2022-11-16T18:28:51.936Z,77.20
2022-11-16T18:31:21.020Z,77.20
2022-11-16T18:33:49.392Z,77.10
2022-11-16T18:36:17.577Z,77.10
2022-11-16T18:38:51.224Z,77.00
2022-11-16T18:41:24.535Z,77.00
2022-11-16T18:44:00.259Z,77.00
2022-11-16T18:46:32.382Z,77.00
2022-11-16T18:49:00.099Z,77.00
2022-11-16T18:51:28.170Z,77.00
2022-11-16T18:54:00.122Z,77.60
2022-11-16T18:56:27.296Z,77.00
2022-11-16T18:58:54.163Z,77.00
2022-11-16T19:01:23.644Z,76.90
2022-11-16T19:03:52.754Z,77.00
2022-11-16T19:06:21.400Z,77.00
2022-11-16T19:08:55.727Z,77.00
2022-11-16T19:11:24.164Z,76.90
2022-11-16T19:13:56.222Z,76.90
2022-11-16T19:16:24.274Z,76.90
2022-11-16T19:18:51.223Z,76.90
2022-11-16T19:21:18.924Z,76.90
2022-11-16T19:23:47.766Z,76.90
2022-11-16T19:26:16.539Z,76.80
2022-11-16T19:28:45.513Z,76.80
2022-11-16T19:31:16.662Z,76.70
2022-11-16T19:33:44.629Z,76.50
2022-11-16T19:36:16.708Z,76.50
2022-11-16T19:38:44.602Z,76.50
2022-11-16T19:41:12.973Z,76.40
2022-11-16T19:43:40.026Z,76.40
2022-11-16T19:46:12.852Z,76.30
2022-11-16T19:48:40.146Z,76.30
2022-11-16T19:51:11.213Z,76.30
2022-11-16T19:53:39.372Z,76.30
2022-11-16T19:56:07.344Z,76.30
2022-11-16T19:58:38.632Z,76.30
2022-11-16T20:01:14.530Z,76.20
2022-11-16T20:03:42.009Z,76.20
2022-11-16T20:06:10.413Z,76.20
2022-11-16T20:08:38.686Z,76.20
2022-11-16T20:11:36.372Z,76.20
2022-11-16T20:14:05.975Z,76.30
2022-11-16T20:16:38.708Z,76.30
2022-11-16T20:19:07.367Z,76.30
2022-11-16T20:21:36.438Z,76.70
2022-11-16T20:24:07.075Z,76.50
2022-11-16T20:26:35.913Z,76.50
2022-11-16T20:29:03.574Z,76.40
2022-11-16T20:31:32.105Z,76.40
2022-11-16T20:34:01.674Z,76.30
2022-11-16T20:36:30.652Z,76.30
2022-11-16T20:38:58.743Z,76.30
2022-11-16T20:41:28.086Z,76.20
2022-11-16T20:43:56.924Z,76.30
2022-11-16T20:46:25.744Z,76.20
2022-11-16T20:48:52.858Z,76.40
2022-11-16T20:51:20.465Z,76.30
2022-11-16T20:53:49.056Z,76.30
2022-11-16T20:56:19.245Z,76.30
2022-11-16T20:58:47.222Z,76.30
2022-11-16T21:01:16.934Z,76.30
2022-11-16T21:03:44.841Z,76.30
2022-11-16T21:06:13.331Z,76.30
2022-11-16T21:08:41.092Z,76.30
2022-11-16T21:11:17.004Z,76.30
2022-11-16T21:14:04.278Z,76.30
2022-11-16T21:16:32.132Z,76.30
2022-11-16T21:18:59.317Z,76.30
2022-11-16T21:21:26.306Z,76.30
2022-11-16T21:23:54.145Z,76.20
2022-11-16T21:26:24.321Z,76.20
2022-11-16T21:28:51.439Z,76.20
2022-11-16T21:31:21.609Z,76.20
2022-11-16T21:33:48.882Z,76.10
2022-11-16T21:36:18.189Z,76.10
2022-11-16T21:38:45.741Z,76.10
2022-11-16T21:41:13.930Z,76.10
2022-11-16T21:43:41.194Z,76.10
2022-11-16T21:46:25.471Z,76.10
2022-11-16T21:48:54.260Z,76.10
2022-11-16T21:51:23.009Z,76.00
2022-11-16T21:53:49.803Z,76.10
2022-11-16T21:56:18.902Z,76.00
2022-11-16T21:58:46.196Z,76.00
2022-11-16T22:01:16.047Z,76.00
2022-11-16T22:03:44.729Z,76.00
2022-11-16T22:06:34.657Z,76.20
2022-11-16T22:09:01.657Z,76.30
2022-11-16T22:11:28.868Z,76.30
2022-11-16T22:13:55.681Z,74.20
2022-11-16T22:16:23.585Z,74.00
2022-11-16T22:18:50.896Z,74.10
2022-11-16T22:21:18.210Z,74.30
2022-11-16T22:23:45.252Z,74.60
2022-11-16T22:26:13.706Z,74.60
2022-11-16T22:28:40.931Z,75.00
2022-11-16T22:31:13.051Z,74.90
2022-11-16T22:33:42.765Z,75.70
2022-11-16T22:36:10.938Z,75.70
2022-11-16T22:38:38.054Z,76.10
2022-11-16T22:41:05.519Z,76.40
2022-11-16T22:43:33.149Z,76.50
2022-11-16T22:46:02.357Z,76.30
2022-11-16T22:48:33.640Z,76.40
2022-11-16T22:51:14.078Z,76.90
2022-11-16T22:53:40.889Z,76.90
2022-11-16T22:56:09.124Z,77.00
2022-11-16T22:58:37.510Z,77.20
2022-11-16T23:01:06.091Z,77.00
2022-11-16T23:03:33.367Z,77.00
2022-11-16T23:06:00.781Z,77.00
2022-11-16T23:08:28.198Z,77.10
2022-11-16T23:11:31.226Z,77.10
2022-11-16T23:14:17.030Z,77.20
2022-11-16T23:16:44.613Z,77.20
2022-11-16T23:19:32.116Z,77.30
2022-11-16T23:22:17.797Z,77.30
2022-11-16T23:25:03.396Z,77.30
2022-11-16T23:27:38.905Z,77.40
2022-11-16T23:30:12.198Z,77.40
2022-11-16T23:32:40.052Z,77.50
2022-11-16T23:35:07.110Z,77.50
2022-11-16T23:37:34.055Z,77.60
2022-11-16T23:40:00.850Z,77.60
2022-11-16T23:42:46.308Z,77.60
2022-11-16T23:45:13.123Z,77.70
2022-11-16T23:47:39.925Z,77.80
2022-11-16T23:50:06.995Z,77.80
2022-11-16T23:52:33.763Z,77.90
2022-11-16T23:55:00.580Z,77.90
2022-11-16T23:57:27.391Z,78.00
2022-11-16T23:59:54.227Z,78.00
